• Join FlightAware (Why Join?)
  • Login
  • US Flag 
04:46AM EDT


 

Airport Tracker/Info


-or-


 

Live Flight TrackerFlight Track Log ✈ FDY2406 ✈ 07-Oct-2013 ✈ KIAH - KVCT

Flight Track Log - Related Links

Times and Time Zones

All times are in EDT time to prevent confusion due to time zone crossing. See the FDY2406 flight status page for this flight to view local times or setup timezone preferences in your user account.

Time Position Orientation Groundspeed Altitude Reporting Facility
EDT Latitude Longitude Course Direction KTS MPH feet Rate Location/Type
04:07PM 29.9708 -95.3522 155° Southeast 118 136 400  Level Houston Center
04:08PM 29.9333 -95.3325 155° Southeast 137 158 1,400 840 Climbing Houston Center
04:09PM 29.9122 -95.3211 155° Southeast 141 162 1,800 660 Climbing Houston Center
04:09PM 29.8917 -95.3353 211° Southwest 157 181 2,200 660 Climbing Houston Center
04:10PM 29.8836 -95.3536 243° Southwest 153 176 2,500 660 Climbing Houston Center
04:10PM 29.8811 -95.3797 264° West 147 169 2,900 480 Climbing Houston Center
04:11PM 29.8825 -95.4022 274° West 151 174 3,000  Climbing Houston Center
04:11PM 29.8811 -95.4281 266° West 171 197 2,900 -120 Descending Houston Center
04:12PM 29.8669 -95.4539 238° Southwest 167 192 2,900  Level Houston Center
04:12PM 29.8519 -95.4747 230° Southwest 184 212 2,900 60 Level Houston Center
04:13PM 29.8311 -95.5058 232° Southwest 173 199 3,000 60 Climbing Houston Center
04:13PM 29.8222 -95.5194 233° Southwest 171 197 3,000  Level Houston Center
04:14PM 29.8033 -95.5497 234° Southwest 172 198 3,000  Level Houston Center
04:14PM 29.7908 -95.5664 229° Southwest 173 199 3,000  Level Houston Center
04:15PM 29.7739 -95.5947 235° Southwest 174 200 3,000  Level Houston Center
04:15PM 29.7636 -95.6131 237° Southwest 177 204 3,000 -120 Level Houston Center
04:16PM 29.7469 -95.6419 236° Southwest 177 204 2,900 -120 Descending Houston Center
04:16PM 29.7361 -95.6594 235° Southwest 176 203 2,900 420 Level Houston Center
04:17PM 29.7089 -95.7058 236° Southwest 170 196 3,500 600 Climbing Houston Center
04:18PM 29.6878 -95.7400 235° Southwest 168 193 4,000 660 Climbing Houston Center
04:18PM 29.6775 -95.7528 227° Southwest 163 188 4,300 540 Climbing Houston Center
04:19PM 29.6553 -95.7761 222° Southwest 164 189 4,600 540 Climbing Houston Center
04:19PM 29.6447 -95.7856 218° Southwest 175 201 4,800 540 Climbing Houston Center
04:20PM 29.6178 -95.8106 219° Southwest 169 194 5,200 660 Climbing Houston Center
04:20PM 29.6078 -95.8211 223° Southwest 174 200 5,500 540 Climbing Houston Center
04:21PM 29.5692 -95.8592 221° Southwest 172 198 5,900 240 Climbing Houston Center
04:22PM 29.5461 -95.8886 228° Southwest 178 205 6,000  Climbing Houston Center
04:23PM 29.5139 -95.9356 232° Southwest 185 213 6,000  Level Houston Center
04:24PM 29.4792 -95.9933 235° Southwest 184 212 6,000  Level Houston Center
04:25PM 29.4508 -96.0350 232° Southwest 184 212 6,000  Level Houston Center
04:26PM 29.4142 -96.0928 234° Southwest 186 214 6,000 -60 Level Houston Center
04:27PM 29.3819 -96.1403 232° Southwest 188 216 5,900  Descending Houston Center
04:28PM 29.3486 -96.1886 232° Southwest 191 220 6,000  Climbing Houston Center
04:29PM 29.3133 -96.2342 228° Southwest 191 220 6,000  Level Houston Center
04:30PM 29.2817 -96.2822 233° Southwest 190 219 6,000  Level Houston Center
04:31PM 29.2489 -96.3317 233° Southwest 193 222 6,000  Level Houston Center
04:33PM 29.2158 -96.3783 231° Southwest 190 219 6,100  Climbing Houston Center
04:34PM 29.1772 -96.4367 233° Southwest 191 220 6,100  Level Houston Center
04:35PM 29.1431 -96.4831 230° Southwest 190 219 6,100 -180 Level Houston Center
04:36PM 29.1061 -96.5300 228° Southwest 195 224 5,800 -420 Descending Houston Center
04:37PM 29.0633 -96.5744 222° Southwest 203 234 5,300 -540 Descending Houston Center
04:38PM 29.0194 -96.6200 222° Southwest 210 242 4,700 -600 Descending Houston Center
04:39PM 28.9778 -96.6664 224° Southwest 210 242 4,100 -660 Descending Houston Center
04:40PM 28.9358 -96.7222 229° Southwest 201 231 3,400 -540 Descending Houston Center
04:41PM 28.9017 -96.7681 230° Southwest 195 224 3,000 -540 Descending Houston Center
04:42PM 28.8694 -96.8131 231° Southwest 189 217 2,400 -480 Descending Houston Center
04:43PM 28.8408 -96.8517 230° Southwest 177 204 2,100 -600 Descending Houston Center
04:44PM 28.8236 -96.8844 239° Southwest 152 175 1,200 -900 Descending Houston Center